Forside
METAR-TAF:

METAR-TAF

Lufthavne :

Schoolcraft County Airport

Manistique, Michigan, USA

Breddekreds: 45-58-29N, længdekreds: 086-10-19W, højde: 209 m

Aktuelle vejr

Denne rapport blev lavet for 10 minutter siden, kl. 02:15 UTC
Vind 3 kt fra sydsydøst
Temperatur 11°C
Fugtighed 100%
Tryk 1013 hPa
Sigt: 2.8 km
Overskyet i en højde af 200 ft
dis

METAR: KISQ 250215Z AUTO 15003KT 1 3/4SM BR OVC002 11/11 A2992 RMK AO2 T01050105

Tid: 22:25 (02:25 UTC)


TAF: fraværende

Vejrobservationer og prognoser fra mere end 4000 lufthavne (METAR og TAF).

De gule og røde prikker repræsenterer de meteorologiske stationer.

Flyt musen over at se navnet på stationen.

Så klik over at se vejr observationer og prognoser.

At skifte det kort: Klik på de grønne knapper med et sort kors for at zoome ind; på den grønne knap med en bindestreg for at zoome ud; eller på de grønne pile for tilstødende kort.


METAR-TAF: